Time;durP1;ratioP1;P1;durP2;ratioP2;P2;SDS_P1;SDS_P2;PMS_P1;PMS_P2;Temp;Humidity;BMP_temperature;BMP_pressure;BME280_temperature;BME280_humidity;BME280_pressure;Samples;Min_cycle;Max_cycle;Signal;HPM_P1;HPM_P2
2021/10/11 00:00:12;;;;;;;23.30;18.33;;;10.80;99.90;;;;;;5014611;28;20168;-71
2021/10/11 00:02:38;;;;;;;22.33;18.00;;;10.70;99.90;;;;;;5013500;28;20634;-70
2021/10/11 00:05:04;;;;;;;23.73;18.40;;;10.60;99.90;;;;;;5013413;28;20191;-70
2021/10/11 00:07:30;;;;;;;23.17;17.57;;;10.60;99.90;;;;;;5014884;28;20494;-71
2021/10/11 00:09:55;;;;;;;24.20;18.10;;;10.60;99.90;;;;;;5016960;28;20410;-71
2021/10/11 00:12:24;;;;;;;28.30;19.17;;;10.60;99.90;;;;;;5023115;28;20195;-71
2021/10/11 00:14:51;;;;;;;22.47;18.23;;;10.40;99.90;;;;;;5013219;27;20191;-71
2021/10/11 00:17:16;;;;;;;23.13;20.10;;;10.20;99.90;;;;;;5014032;28;20409;-71
2021/10/11 00:19:43;;;;;;;23.77;20.20;;;10.20;99.90;;;;;;5014487;28;20804;-71
2021/10/11 00:22:09;;;;;;;24.67;20.30;;;10.10;99.90;;;;;;5013797;28;20171;-71
2021/10/11 00:24:35;;;;;;;24.47;19.73;;;10.00;99.90;;;;;;5013454;28;20410;-71
2021/10/11 00:27:00;;;;;;;26.73;21.07;;;9.90;99.90;;;;;;5013998;28;20889;-71
2021/10/11 00:29:26;;;;;;;25.13;19.30;;;9.80;99.90;;;;;;5014404;27;20275;-71
2021/10/11 00:31:51;;;;;;;28.20;21.57;;;9.90;99.90;;;;;;5013277;28;20217;-71
2021/10/11 00:34:17;;;;;;;25.53;20.70;;;10.00;99.90;;;;;;5013975;28;20203;-71
2021/10/11 00:36:42;;;;;;;26.13;19.67;;;10.00;99.90;;;;;;5022480;28;20200;-71
2021/10/11 00:39:08;;;;;;;25.50;19.47;;;10.10;99.90;;;;;;5013948;28;20231;-71
2021/10/11 00:41:33;;;;;;;26.87;18.73;;;10.20;99.90;;;;;;5014050;28;20186;-72
2021/10/11 00:44:00;;;;;;;25.00;19.47;;;10.30;99.90;;;;;;5032491;28;20179;-71
2021/10/11 00:46:25;;;;;;;24.03;18.17;;;10.30;99.90;;;;;;5032252;28;20206;-71
2021/10/11 00:48:51;;;;;;;22.07;17.27;;;10.40;99.90;;;;;;5032244;27;20430;-71
2021/10/11 00:51:17;;;;;;;20.50;17.03;;;10.50;99.90;;;;;;5033012;28;20501;-71
2021/10/11 00:53:42;;;;;;;24.23;18.87;;;10.50;99.90;;;;;;5030934;28;20249;-71
2021/10/11 00:56:08;;;;;;;23.40;18.07;;;10.50;99.90;;;;;;5031124;28;20206;-71
2021/10/11 00:58:34;;;;;;;21.20;16.87;;;10.60;99.90;;;;;;5032547;28;20409;-71
2021/10/11 01:01:00;;;;;;;20.57;16.80;;;10.60;99.90;;;;;;5030722;28;20258;-71
2021/10/11 01:03:25;;;;;;;20.80;16.50;;;10.70;99.90;;;;;;5032649;28;20642;-72
2021/10/11 01:05:51;;;;;;;26.00;18.20;;;10.70;99.90;;;;;;5032471;28;20385;-71
2021/10/11 01:08:17;;;;;;;23.03;17.00;;;10.60;99.90;;;;;;5032778;28;20171;-71
2021/10/11 01:10:47;;;;;;;19.60;17.50;;;10.70;99.90;;;;;;5032143;28;20465;-71
2021/10/11 01:13:13;;;;;;;19.93;17.67;;;10.70;99.90;;;;;;5030224;28;20191;-71
2021/10/11 01:15:39;;;;;;;19.93;17.60;;;10.60;99.90;;;;;;5031780;28;20567;-71
2021/10/11 01:18:05;;;;;;;23.10;17.60;;;10.70;99.90;;;;;;5024569;27;20536;-71
2021/10/11 01:20:30;;;;;;;18.47;16.53;;;10.70;99.90;;;;;;5018091;28;20184;-71
2021/10/11 01:22:56;;;;;;;20.90;16.70;;;10.60;99.90;;;;;;5014105;28;20183;-71
2021/10/11 01:25:22;;;;;;;20.77;17.37;;;10.70;99.90;;;;;;5011939;28;20702;-71
2021/10/11 01:27:47;;;;;;;19.47;16.87;;;10.70;99.90;;;;;;5010777;28;20188;-71
2021/10/11 01:30:14;;;;;;;17.83;16.00;;;10.60;99.90;;;;;;5012328;28;20232;-71
2021/10/11 01:32:41;;;;;;;21.40;17.53;;;10.70;99.90;;;;;;5011775;28;20207;-71
2021/10/11 01:35:08;;;;;;;19.90;15.70;;;10.80;99.90;;;;;;5012180;28;20423;-70
2021/10/11 01:37:35;;;;;;;19.57;16.13;;;10.80;99.90;;;;;;5011756;28;20804;-71
2021/10/11 01:40:06;;;;;;;20.50;16.43;;;10.80;99.90;;;;;;5012319;28;20460;-71
2021/10/11 01:42:32;;;;;;;21.73;17.60;;;10.70;99.90;;;;;;5011887;28;20415;-71
2021/10/11 01:44:57;;;;;;;20.73;18.00;;;10.80;99.90;;;;;;5012787;28;20934;-71
2021/10/11 01:47:25;;;;;;;23.40;19.30;;;10.90;99.90;;;;;;5011593;27;20215;-71
2021/10/11 01:49:51;;;;;;;20.57;15.77;;;10.90;99.90;;;;;;5011903;28;20286;-71
2021/10/11 01:52:16;;;;;;;22.83;17.57;;;11.00;99.90;;;;;;5011934;28;20833;-71
2021/10/11 01:54:42;;;;;;;19.50;16.53;;;11.00;99.90;;;;;;5012158;28;20269;-71
2021/10/11 01:57:08;;;;;;;20.13;16.00;;;11.00;99.90;;;;;;5011573;28;20176;-71
2021/10/11 01:59:33;;;;;;;21.10;16.70;;;11.10;99.90;;;;;;5011821;28;20644;-71
2021/10/11 02:01:59;;;;;;;19.93;16.80;;;11.10;99.90;;;;;;5012115;28;20418;-70
2021/10/11 02:04:25;;;;;;;21.53;17.90;;;11.20;99.90;;;;;;5011392;28;20168;-71
2021/10/11 02:06:50;;;;;;;21.43;17.30;;;11.20;99.90;;;;;;5012773;28;20247;-71
2021/10/11 02:09:16;;;;;;;20.13;16.10;;;11.20;99.90;;;;;;5011470;28;20414;-71
2021/10/11 02:11:42;;;;;;;19.43;16.57;;;11.20;99.90;;;;;;5011509;28;20180;-71
2021/10/11 02:14:07;;;;;;;21.40;17.60;;;11.20;99.90;;;;;;5011188;28;20221;-71
2021/10/11 02:16:33;;;;;;;21.77;16.67;;;11.20;99.90;;;;;;5011170;28;20235;-71
2021/10/11 02:18:58;;;;;;;19.90;16.27;;;11.20;99.90;;;;;;5011310;28;20254;-71
2021/10/11 02:21:24;;;;;;;23.40;18.10;;;11.20;99.90;;;;;;5010339;28;20176;-71
2021/10/11 02:23:49;;;;;;;23.00;17.57;;;11.20;99.90;;;;;;5010970;28;20535;-71
2021/10/11 02:26:15;;;;;;;20.43;17.60;;;11.30;99.90;;;;;;5012791;28;20254;-71
2021/10/11 02:28:40;;;;;;;21.53;18.60;;;11.40;99.90;;;;;;5010014;28;20187;-71
2021/10/11 02:31:06;;;;;;;21.53;17.57;;;11.40;99.90;;;;;;5010987;28;20171;-71
2021/10/11 02:33:31;;;;;;;22.57;19.37;;;11.50;99.90;;;;;;5010905;28;20283;-71
2021/10/11 02:35:57;;;;;;;22.77;18.10;;;11.50;99.90;;;;;;5011293;28;20532;-71
2021/10/11 02:38:23;;;;;;;23.07;19.30;;;11.50;99.90;;;;;;5012287;28;20195;-71
2021/10/11 02:40:49;;;;;;;21.33;18.70;;;11.50;99.90;;;;;;5011652;28;20262;-72
2021/10/11 02:43:14;;;;;;;20.67;17.70;;;11.50;99.90;;;;;;5024271;28;20933;-71
2021/10/11 02:45:40;;;;;;;23.00;19.77;;;11.60;99.90;;;;;;5030367;27;20593;-71
2021/10/11 02:48:06;;;;;;;21.33;18.10;;;11.60;99.90;;;;;;5031044;28;20190;-71
2021/10/11 02:50:32;;;;;;;23.35;19.83;;;11.60;99.90;;;;;;5030005;28;20522;-71
2021/10/11 02:52:58;;;;;;;21.90;18.50;;;11.60;99.90;;;;;;5026287;28;20227;-71
2021/10/11 02:55:23;;;;;;;24.83;19.27;;;11.70;99.90;;;;;;5010896;28;20443;-70
2021/10/11 02:57:49;;;;;;;24.73;20.20;;;11.70;99.90;;;;;;5010887;28;20175;-71
2021/10/11 03:00:14;;;;;;;26.27;21.03;;;11.60;99.90;;;;;;5011444;28;20172;-71
2021/10/11 03:02:40;;;;;;;30.17;23.30;;;11.50;99.90;;;;;;5011370;28;20655;-70
2021/10/11 03:05:06;;;;;;;30.17;22.83;;;11.50;99.90;;;;;;5011169;27;20199;-72
2021/10/11 03:07:31;;;;;;;29.17;24.13;;;11.40;99.90;;;;;;5010410;28;20178;-71
2021/10/11 03:09:57;;;;;;;30.63;24.40;;;11.40;99.90;;;;;;5010871;28;20231;-71
2021/10/11 03:12:22;;;;;;;38.40;28.97;;;11.40;99.90;;;;;;5009571;28;20239;-71
2021/10/11 03:14:49;;;;;;;43.80;29.30;;;11.40;99.90;;;;;;5011870;28;20258;-71
2021/10/11 03:17:15;;;;;;;50.43;34.73;;;11.40;99.90;;;;;;5011062;28;20164;-71
2021/10/11 03:19:40;;;;;;;53.63;38.77;;;11.30;99.90;;;;;;5010728;27;20426;-71
2021/10/11 03:22:06;;;;;;;53.10;37.13;;;11.40;99.90;;;;;;5010804;28;20168;-70
2021/10/11 03:24:32;;;;;;;57.57;40.63;;;11.40;99.90;;;;;;5012240;28;20643;-71
2021/10/11 03:26:57;;;;;;;62.70;42.10;;;11.40;99.90;;;;;;5019142;28;20438;-71
2021/10/11 03:29:23;;;;;;;62.00;42.20;;;11.50;99.90;;;;;;5029028;28;20280;-71
2021/10/11 03:31:48;;;;;;;68.90;45.80;;;11.50;99.90;;;;;;5030007;28;20220;-71
2021/10/11 03:34:14;;;;;;;75.67;47.70;;;11.50;99.90;;;;;;5029896;28;20194;-71
2021/10/11 03:36:40;;;;;;;66.63;46.20;;;11.40;99.90;;;;;;5028636;27;20672;-71
2021/10/11 03:39:06;;;;;;;67.30;47.13;;;11.50;99.90;;;;;;5028996;28;20181;-71
2021/10/11 03:41:33;;;;;;;70.70;47.73;;;11.50;99.90;;;;;;5030517;28;20432;-71
2021/10/11 03:44:00;;;;;;;65.47;44.00;;;11.60;99.90;;;;;;5030445;28;20952;-71
2021/10/11 03:46:26;;;;;;;53.67;39.20;;;11.60;99.90;;;;;;5021928;28;20957;-71
2021/10/11 03:48:51;;;;;;;50.13;34.63;;;11.60;99.90;;;;;;5010914;27;20426;-72
2021/10/11 03:51:21;;;;;;;45.07;33.37;;;11.60;99.90;;;;;;5019123;28;20224;-70
2021/10/11 03:53:50;;;;;;;34.50;27.60;;;11.60;99.90;;;;;;5010664;28;20187;-71
2021/10/11 03:56:16;;;;;;;28.23;20.27;;;11.60;99.90;;;;;;5011486;28;20441;-71
2021/10/11 03:58:41;;;;;;;27.90;20.73;;;11.60;99.90;;;;;;5010615;27;20411;-71
2021/10/11 04:01:07;;;;;;;28.63;20.27;;;11.50;99.90;;;;;;5010948;28;20160;-71
2021/10/11 04:03:32;;;;;;;27.37;20.37;;;11.50;99.90;;;;;;5009938;28;20172;-71
2021/10/11 04:05:58;;;;;;;31.23;24.20;;;11.50;99.90;;;;;;5009208;28;20447;-71
2021/10/11 04:08:32;;;;;;;27.73;21.00;;;11.60;99.90;;;;;;5011280;28;20187;-71
2021/10/11 04:13:32;;;;;;;24.43;18.43;;;11.80;99.90;;;;;;5009878;28;20457;-71
2021/10/11 04:15:57;;;;;;;26.20;20.50;;;11.80;99.90;;;;;;5009832;28;20837;-71
2021/10/11 04:18:23;;;;;;;27.20;19.90;;;11.90;99.90;;;;;;5012731;28;20190;-71
2021/10/11 04:20:49;;;;;;;27.80;18.20;;;11.90;99.90;;;;;;5013857;28;20637;-71
2021/10/11 04:23:14;;;;;;;21.27;16.67;;;11.90;99.90;;;;;;5014214;28;20178;-71
2021/10/11 04:25:40;;;;;;;25.10;18.13;;;12.00;99.90;;;;;;5013561;28;20310;-71
2021/10/11 04:28:07;;;;;;;23.87;17.87;;;12.10;99.90;;;;;;5020565;28;20194;-71
2021/10/11 04:30:32;;;;;;;24.53;16.83;;;12.10;99.90;;;;;;5025849;28;20229;-71
2021/10/11 04:32:58;;;;;;;22.67;17.47;;;12.10;99.90;;;;;;5024199;28;20466;-72
2021/10/11 04:35:25;;;;;;;19.33;16.30;;;12.10;99.90;;;;;;5013380;28;20221;-71
2021/10/11 04:37:51;;;;;;;24.47;17.10;;;12.20;99.90;;;;;;5013778;28;20648;-71
2021/10/11 04:40:18;;;;;;;21.33;16.90;;;12.20;99.90;;;;;;5013864;28;20431;-71
2021/10/11 04:42:44;;;;;;;24.47;16.67;;;12.20;99.90;;;;;;5020691;28;20428;-72
2021/10/11 04:45:11;;;;;;;21.67;16.90;;;12.20;99.90;;;;;;5032165;28;20433;-71
2021/10/11 04:47:36;;;;;;;24.10;18.27;;;12.20;99.90;;;;;;5032347;27;20277;-71
2021/10/11 04:50:03;;;;;;;26.53;17.70;;;12.30;99.90;;;;;;5032284;28;20472;-71
2021/10/11 04:52:29;;;;;;;20.30;15.80;;;12.30;99.90;;;;;;5030375;28;20295;-71
2021/10/11 04:54:55;;;;;;;20.60;15.77;;;12.30;99.90;;;;;;5032465;28;20406;-71
2021/10/11 04:57:20;;;;;;;22.33;16.77;;;12.30;99.90;;;;;;5018864;27;20187;-71
2021/10/11 04:59:46;;;;;;;22.70;17.37;;;12.30;99.90;;;;;;5020980;28;20183;-71
2021/10/11 05:02:11;;;;;;;21.03;17.37;;;12.40;99.90;;;;;;5019565;28;20187;-71
2021/10/11 05:04:37;;;;;;;19.97;15.13;;;12.40;99.90;;;;;;5015647;28;20629;-71
2021/10/11 05:07:02;;;;;;;20.33;16.43;;;12.40;99.90;;;;;;5020276;28;20207;-71
2021/10/11 05:09:28;;;;;;;22.80;18.07;;;12.40;99.90;;;;;;5019147;27;20265;-71
2021/10/11 05:11:53;;;;;;;25.30;19.70;;;12.50;99.90;;;;;;5021113;28;20184;-71
2021/10/11 05:14:19;;;;;;;25.17;19.50;;;12.50;99.90;;;;;;5020950;28;20616;-71
2021/10/11 05:16:45;;;;;;;23.90;19.00;;;12.50;99.90;;;;;;5012419;28;20540;-71
2021/10/11 05:19:11;;;;;;;26.80;19.30;;;12.50;99.90;;;;;;5012273;28;20182;-71
2021/10/11 05:21:37;;;;;;;27.30;19.40;;;12.50;99.90;;;;;;5013557;27;20568;-72
2021/10/11 05:24:03;;;;;;;27.90;20.27;;;12.50;99.90;;;;;;5024045;28;20520;-71
2021/10/11 05:26:31;;;;;;;25.70;19.07;;;12.50;99.90;;;;;;5015757;27;20548;-71
2021/10/11 05:28:57;;;;;;;28.13;18.33;;;12.60;99.90;;;;;;5033046;27;20463;-71
2021/10/11 05:31:23;;;;;;;26.73;17.77;;;12.50;99.90;;;;;;5024958;27;20509;-71
2021/10/11 05:33:49;;;;;;;25.00;18.20;;;12.50;99.90;;;;;;5030697;27;20465;-71
2021/10/11 05:36:16;;;;;;;32.07;21.87;;;12.40;99.90;;;;;;5020308;27;20431;-71
2021/10/11 05:38:41;;;;;;;28.77;20.37;;;12.30;99.90;;;;;;5017852;28;20438;-71
2021/10/11 05:41:07;;;;;;;31.10;19.20;;;12.30;99.90;;;;;;5009699;27;20450;-71
2021/10/11 05:43:33;;;;;;;33.57;19.80;;;12.30;99.90;;;;;;5016213;27;20217;-70
2021/10/11 05:45:58;;;;;;;29.37;19.30;;;12.20;99.90;;;;;;5024694;27;20208;-71
2021/10/11 05:48:24;;;;;;;29.37;19.17;;;12.20;99.90;;;;;;5015596;28;20214;-71
2021/10/11 05:50:49;;;;;;;27.10;17.87;;;12.20;99.90;;;;;;5041114;27;20355;-71
2021/10/11 05:53:15;;;;;;;25.47;17.03;;;12.20;99.90;;;;;;5024992;27;20715;-71
2021/10/11 05:55:40;;;;;;;26.77;17.50;;;12.20;99.90;;;;;;5008024;27;20373;-72
2021/10/11 05:58:06;;;;;;;24.90;16.20;;;12.10;99.90;;;;;;5009444;28;20211;-72
2021/10/11 06:00:31;;;;;;;22.97;16.50;;;12.10;99.90;;;;;;5023926;27;20695;-71
2021/10/11 06:02:57;;;;;;;25.30;15.23;;;12.00;99.90;;;;;;5042431;28;20632;-71
2021/10/11 06:05:22;;;;;;;20.37;14.60;;;12.10;99.90;;;;;;5037306;27;20221;-72
2021/10/11 06:07:48;;;;;;;21.63;14.83;;;12.10;99.90;;;;;;5023522;28;20519;-72
2021/10/11 06:10:14;;;;;;;26.30;14.03;;;12.00;99.90;;;;;;5026726;28;20195;-71
2021/10/11 06:12:40;;;;;;;24.07;14.03;;;12.00;99.90;;;;;;5025924;27;20583;-70
2021/10/11 06:15:06;;;;;;;21.43;13.20;;;12.00;99.90;;;;;;5025651;28;20194;-70
2021/10/11 06:17:32;;;;;;;19.00;13.13;;;12.10;99.90;;;;;;5025181;27;20489;-71
2021/10/11 06:19:58;;;;;;;18.23;12.90;;;12.10;99.90;;;;;;5026194;28;20465;-71
2021/10/11 06:22:23;;;;;;;20.80;14.43;;;12.10;99.90;;;;;;5025387;27;20203;-71
2021/10/11 06:24:49;;;;;;;22.10;12.87;;;12.10;99.90;;;;;;5025552;28;20669;-71
2021/10/11 06:27:14;;;;;;;18.03;12.67;;;12.20;99.90;;;;;;5025482;27;20284;-70
2021/10/11 06:29:40;;;;;;;16.87;11.80;;;12.20;99.90;;;;;;5006527;28;20206;-71
2021/10/11 06:32:06;;;;;;;17.17;11.90;;;12.30;99.90;;;;;;5005671;27;20219;-71
2021/10/11 06:34:31;;;;;;;19.10;10.90;;;12.40;99.90;;;;;;5004967;28;20211;-71
2021/10/11 06:36:57;;;;;;;19.63;11.00;;;12.40;99.90;;;;;;5037090;27;20488;-71
2021/10/11 06:39:22;;;;;;;20.57;11.57;;;12.40;99.90;;;;;;5036829;28;20207;-71
2021/10/11 06:41:48;;;;;;;15.27;10.90;;;12.40;99.90;;;;;;5020714;27;20231;-72
2021/10/11 06:44:14;;;;;;;13.20;9.67;;;12.30;99.90;;;;;;5026521;28;20241;-72
2021/10/11 06:46:39;;;;;;;16.13;10.40;;;12.30;99.90;;;;;;5026443;27;20550;-72
2021/10/11 06:49:05;;;;;;;13.90;10.07;;;12.30;99.90;;;;;;5006377;27;20227;-71
2021/10/11 06:51:30;;;;;;;13.67;9.80;;;12.30;99.90;;;;;;5005330;27;20202;-72
2021/10/11 06:53:56;;;;;;;16.03;11.20;;;12.20;99.90;;;;;;5009191;28;20293;-72
2021/10/11 06:56:21;;;;;;;16.63;10.63;;;12.30;99.90;;;;;;5025682;27;20201;-72
2021/10/11 06:58:47;;;;;;;18.93;11.33;;;12.30;99.90;;;;;;5024957;28;20210;-72
2021/10/11 07:01:13;;;;;;;18.33;9.83;;;12.40;99.90;;;;;;5019357;28;20286;-72
2021/10/11 07:03:40;;;;;;;17.87;9.57;;;12.50;99.90;;;;;;5005592;28;20214;-70
2021/10/11 07:06:12;;;;;;;19.13;11.83;;;12.50;99.90;;;;;;5017504;28;20192;-73
2021/10/11 07:08:38;;;;;;;16.70;10.40;;;12.50;99.90;;;;;;5007445;27;20454;-72
2021/10/11 07:11:04;;;;;;;14.40;9.23;;;12.50;99.90;;;;;;5008732;28;21109;-72
2021/10/11 07:13:30;;;;;;;21.40;9.90;;;12.50;99.90;;;;;;5024481;27;20691;-72
2021/10/11 07:15:55;;;;;;;17.23;10.70;;;12.50;99.90;;;;;;5025811;28;20441;-72
2021/10/11 07:18:21;;;;;;;21.73;10.23;;;12.50;99.90;;;;;;5025073;27;20210;-72
2021/10/11 07:20:47;;;;;;;16.60;10.33;;;12.50;99.90;;;;;;5024702;28;21167;-72
2021/10/11 07:23:14;;;;;;;16.57;11.13;;;12.50;99.90;;;;;;5023787;27;20553;-72
2021/10/11 07:25:40;;;;;;;13.97;10.27;;;12.50;99.90;;;;;;5025221;28;20194;-72
2021/10/11 07:28:06;;;;;;;13.63;9.90;;;12.50;99.90;;;;;;5025481;27;20900;-72
2021/10/11 07:30:32;;;;;;;14.80;10.43;;;12.50;99.90;;;;;;5024945;28;20573;-72
2021/10/11 07:32:59;;;;;;;18.57;9.70;;;12.50;99.90;;;;;;5023713;27;20853;-72
2021/10/11 07:35:25;;;;;;;18.57;10.70;;;12.60;99.90;;;;;;5021552;28;20214;-71
2021/10/11 07:37:50;;;;;;;15.33;11.10;;;12.70;99.90;;;;;;5043594;27;20456;-71
2021/10/11 07:40:17;;;;;;;20.80;11.30;;;12.60;99.90;;;;;;5044923;28;20444;-72
2021/10/11 07:42:43;;;;;;;19.07;12.43;;;12.50;99.90;;;;;;5042961;27;20220;-72
2021/10/11 07:45:08;;;;;;;23.30;12.57;;;12.50;99.90;;;;;;5004408;28;20458;-72
2021/10/11 07:47:34;;;;;;;18.47;12.77;;;12.60;99.90;;;;;;5011186;27;20240;-72
2021/10/11 07:49:59;;;;;;;18.97;12.40;;;12.50;99.90;;;;;;5024328;28;20218;-72
2021/10/11 07:52:25;;;;;;;21.13;13.20;;;12.50;99.90;;;;;;5024669;27;20277;-72
2021/10/11 07:54:51;;;;;;;22.00;13.20;;;12.50;99.90;;;;;;5024280;28;20652;-72
2021/10/11 07:57:16;;;;;;;24.87;15.80;;;12.60;99.90;;;;;;5028296;28;20195;-72
2021/10/11 07:59:42;;;;;;;23.50;14.37;;;12.70;99.90;;;;;;5027506;27;20215;-72
2021/10/11 08:02:07;;;;;;;26.07;15.30;;;12.80;99.90;;;;;;5028378;28;20552;-72
2021/10/11 08:04:33;;;;;;;22.77;14.77;;;12.90;99.90;;;;;;5024105;27;20215;-72
2021/10/11 08:06:58;;;;;;;28.67;16.40;;;12.90;99.90;;;;;;5007775;28;20771;-72
2021/10/11 08:09:24;;;;;;;22.80;14.73;;;12.90;99.90;;;;;;5008331;27;20298;-72
2021/10/11 08:11:49;;;;;;;23.60;14.23;;;12.90;99.90;;;;;;5008118;28;20205;-73
2021/10/11 08:14:15;;;;;;;23.00;15.23;;;13.00;99.90;;;;;;5007526;27;20242;-73
2021/10/11 08:16:41;;;;;;;26.50;14.10;;;13.10;99.90;;;;;;5008689;27;20706;-74
2021/10/11 08:19:10;;;;;;;24.43;15.87;;;13.10;99.90;;;;;;5007637;27;20458;-73
2021/10/11 08:21:37;;;;;;;29.10;14.80;;;13.00;99.90;;;;;;5007084;28;20444;-74
2021/10/11 08:24:04;;;;;;;25.43;13.80;;;12.90;99.90;;;;;;5007124;27;20465;-72
2021/10/11 08:26:31;;;;;;;22.00;12.90;;;13.00;99.90;;;;;;5015163;28;20450;-73
2021/10/11 08:28:56;;;;;;;28.00;15.43;;;13.10;99.90;;;;;;5026945;27;20457;-72
2021/10/11 08:31:22;;;;;;;25.03;14.07;;;13.20;99.90;;;;;;5027186;28;20535;-73
2021/10/11 08:33:48;;;;;;;25.30;14.40;;;13.30;99.90;;;;;;5026526;27;20319;-73
2021/10/11 08:36:14;;;;;;;26.53;14.10;;;13.30;99.90;;;;;;5024485;28;20207;-73
2021/10/11 08:38:41;;;;;;;27.40;14.90;;;13.40;99.90;;;;;;5012987;27;20619;-73
2021/10/11 08:41:08;;;;;;;25.07;15.13;;;13.50;99.90;;;;;;5027733;28;20456;-73
2021/10/11 08:43:38;;;;;;;25.13;14.17;;;13.60;99.90;;;;;;5010175;27;20981;-74
2021/10/11 08:46:05;;;;;;;23.80;14.27;;;13.60;99.90;;;;;;5008126;28;20541;-72
2021/10/11 08:48:32;;;;;;;29.53;14.20;;;13.60;99.90;;;;;;5021327;27;20469;-73
2021/10/11 08:51:01;;;;;;;22.70;12.57;;;13.70;99.90;;;;;;5027427;28;20461;-72
2021/10/11 08:53:26;;;;;;;24.63;13.30;;;13.80;99.90;;;;;;5026726;28;20560;-72
2021/10/11 08:55:52;;;;;;;23.20;14.73;;;13.80;99.90;;;;;;5026240;27;20529;-73
2021/10/11 08:58:18;;;;;;;21.37;14.60;;;13.80;99.90;;;;;;5027116;28;20195;-72
2021/10/11 09:00:44;;;;;;;25.93;14.53;;;13.90;99.90;;;;;;5030941;27;20544;-73
2021/10/11 09:03:16;;;;;;;25.87;15.03;;;13.90;99.90;;;;;;5025555;28;20668;-73
2021/10/11 09:05:42;;;;;;;25.67;14.70;;;13.90;99.90;;;;;;5014452;27;20696;-73
2021/10/11 09:08:12;;;;;;;26.83;14.80;;;14.00;99.90;;;;;;5007533;28;20473;-72
2021/10/11 09:10:57;;;;;;;23.63;14.90;;;14.10;99.90;;;;;;5007858;27;20224;-72
2021/10/11 09:13:41;;;;;;;22.73;13.40;;;14.20;99.90;;;;;;5006812;28;20576;-73
2021/10/11 09:16:08;;;;;;;20.47;11.90;;;14.00;99.90;;;;;;4996715;27;20470;-73
2021/10/11 09:18:36;;;;;;;17.43;11.07;;;13.90;99.90;;;;;;5021656;28;20449;-73
2021/10/11 09:21:02;;;;;;;20.70;12.60;;;14.00;99.90;;;;;;5023630;27;20430;-73
2021/10/11 09:23:31;;;;;;;19.37;11.43;;;14.10;99.90;;;;;;5008754;28;20965;-70
2021/10/11 09:25:58;;;;;;;18.43;10.37;;;13.90;99.90;;;;;;5006330;27;20994;-72
2021/10/11 09:28:25;;;;;;;15.20;9.37;;;13.90;99.90;;;;;;5006034;27;20841;-72
2021/10/11 09:30:51;;;;;;;16.03;9.23;;;13.80;99.90;;;;;;5004997;28;20557;-72
2021/10/11 09:33:21;;;;;;;15.50;9.60;;;13.90;99.90;;;;;;5013096;28;20549;-72
2021/10/11 09:35:48;;;;;;;13.03;7.90;;;14.00;99.90;;;;;;5021618;27;20468;-72
2021/10/11 09:38:17;;;;;;;19.63;8.00;;;13.80;99.90;;;;;;5044765;27;20441;-72
2021/10/11 09:40:42;;;;;;;16.50;8.23;;;13.70;99.90;;;;;;5045223;27;20445;-72
2021/10/11 09:43:15;;;;;;;18.17;9.17;;;13.90;99.90;;;;;;5045491;27;20440;-73
2021/10/11 09:45:42;;;;;;;13.30;8.67;;;13.90;99.90;;;;;;5039054;27;20214;-73
2021/10/11 09:48:08;;;;;;;20.00;9.27;;;13.90;99.90;;;;;;5024831;27;20446;-73
2021/10/11 09:50:35;;;;;;;16.43;9.37;;;13.90;99.90;;;;;;5023326;27;20480;-73
2021/10/11 09:53:02;;;;;;;13.53;7.83;;;14.00;99.90;;;;;;5025082;28;20469;-72
2021/10/11 09:55:28;;;;;;;13.67;7.63;;;13.90;99.90;;;;;;5025449;27;20462;-72
2021/10/11 09:57:54;;;;;;;11.17;7.03;;;13.80;99.90;;;;;;5033693;27;20444;-72
2021/10/11 10:00:20;;;;;;;12.97;6.47;;;13.70;99.90;;;;;;5039058;27;20199;-72
2021/10/11 10:02:46;;;;;;;13.70;7.60;;;13.60;99.90;;;;;;5027745;28;20760;-72
2021/10/11 10:05:18;;;;;;;11.13;6.90;;;13.70;99.90;;;;;;5009147;27;20203;-73
2021/10/11 10:07:48;;;;;;;12.77;6.63;;;13.70;99.90;;;;;;5005894;28;20600;-72
2021/10/11 10:10:17;;;;;;;11.33;6.57;;;13.80;99.90;;;;;;5006269;27;20479;-72
2021/10/11 10:12:47;;;;;;;11.30;6.60;;;13.80;99.90;;;;;;5005908;28;20561;-72
2021/10/11 10:15:24;;;;;;;12.50;6.33;;;13.70;99.90;;;;;;5005088;27;20446;-74
2021/10/11 10:17:59;;;;;;;11.87;6.00;;;13.60;99.90;;;;;;5005267;28;20445;-72
2021/10/11 10:20:25;;;;;;;10.53;4.77;;;13.50;99.90;;;;;;5015829;27;20464;-72
2021/10/11 10:22:51;;;;;;;9.90;5.60;;;13.40;99.90;;;;;;5024274;28;20418;-72
2021/10/11 10:25:17;;;;;;;10.77;6.47;;;13.20;99.90;;;;;;5030729;28;20461;-72
2021/10/11 10:27:44;;;;;;;6.50;4.70;;;13.10;99.90;;;;;;5034284;27;20486;-72
2021/10/11 10:30:20;;;;;;;8.23;5.30;;;13.10;99.90;;;;;;5025917;27;20974;-72
2021/10/11 10:33:16;;;;;;;14.57;5.00;;;13.30;99.90;;;;;;5024945;27;20904;-72
2021/10/11 10:35:47;;;;;;;14.90;5.57;;;13.50;99.90;;;;;;4938418;28;20532;-73
2021/10/11 10:38:17;;;;;;;6.93;5.00;;;13.60;99.90;;;;;;4930122;28;21084;-73
2021/10/11 10:40:43;;;;;;;9.40;4.63;;;13.70;99.90;;;;;;4934931;28;20476;-73
2021/10/11 10:43:12;;;;;;;7.97;3.83;;;13.80;99.90;;;;;;4933284;29;20543;-73
2021/10/11 10:45:39;;;;;;;6.30;3.67;;;14.00;99.90;;;;;;4928405;29;21285;-73
2021/10/11 10:48:25;;;;;;;8.10;4.17;;;14.20;99.90;;;;;;4935119;28;20534;-73
2021/10/11 10:51:02;;;;;;;7.63;3.97;;;14.40;99.90;;;;;;4923581;28;20531;-74
2021/10/11 10:53:29;;;;;;;9.67;3.87;;;14.60;99.90;;;;;;4923623;29;20509;-73
2021/10/11 10:55:54;;;;;;;10.63;4.90;;;14.70;99.90;;;;;;4926871;29;20448;-73
2021/10/11 10:58:23;;;;;;;8.30;4.70;;;14.50;99.90;;;;;;4925852;28;20494;-73
2021/10/11 11:00:49;;;;;;;8.83;4.83;;;14.30;99.90;;;;;;4933899;28;20518;-74
2021/10/11 11:03:17;;;;;;;7.83;4.93;;;14.30;99.90;;;;;;4923138;28;20476;-73
2021/10/11 11:05:44;;;;;;;7.47;5.50;;;14.20;99.90;;;;;;4938975;29;20518;-73
2021/10/11 11:08:11;;;;;;;18.00;5.90;;;14.20;99.90;;;;;;4938378;28;20469;-73
2021/10/11 11:10:39;;;;;;;9.50;5.67;;;14.10;99.90;;;;;;4932926;28;20476;-72
2021/10/11 11:13:08;;;;;;;7.10;5.13;;;14.20;99.90;;;;;;5007417;27;20481;-72
2021/10/11 11:15:38;;;;;;;7.00;5.50;;;14.20;99.90;;;;;;5011417;28;20453;-73
2021/10/11 11:18:16;;;;;;;11.03;5.10;;;14.40;99.90;;;;;;5010337;27;20469;-73
2021/10/11 11:20:44;;;;;;;11.43;4.83;;;14.70;99.90;;;;;;5015940;27;20611;-72
2021/10/11 11:23:21;;;;;;;10.87;4.23;;;14.90;99.90;;;;;;5013967;27;20831;-73
2021/10/11 11:25:48;;;;;;;8.60;5.10;;;15.10;99.90;;;;;;5011977;28;20454;-72
2021/10/11 11:28:22;;;;;;;8.60;5.10;;;15.10;99.90;;;;;;5015490;27;20472;-72
2021/10/11 11:30:52;;;;;;;10.27;5.87;;;15.20;99.90;;;;;;5020115;27;21104;-72
2021/10/11 11:33:27;;;;;;;9.13;6.87;;;15.20;99.90;;;;;;5022927;27;20495;-72
2021/10/11 11:35:55;;;;;;;10.57;6.40;;;15.10;99.90;;;;;;5013045;28;20514;-72
2021/10/11 11:38:24;;;;;;;8.70;6.10;;;15.00;99.90;;;;;;5006204;27;20450;-73
2021/10/11 11:40:52;;;;;;;9.90;6.50;;;15.10;99.90;;;;;;5021752;28;20441;-73
2021/10/11 11:43:18;;;;;;;12.93;7.07;;;15.20;99.90;;;;;;5023778;27;21009;-74
2021/10/11 11:45:46;;;;;;;7.67;5.67;;;15.40;99.90;;;;;;5023390;28;20451;-73
2021/10/11 11:48:21;;;;;;;11.70;10.10;;;15.40;99.90;;;;;;5014187;27;20999;-73
2021/10/11 11:50:51;;;;;;;13.87;7.30;;;15.40;99.90;;;;;;5005039;28;21688;-73
2021/10/11 11:53:20;;;;;;;9.20;6.70;;;15.40;99.90;;;;;;5005023;27;20501;-73
2021/10/11 11:55:47;;;;;;;7.80;6.70;;;15.20;99.90;;;;;;5014238;28;20449;-74
2021/10/11 11:58:31;;;;;;;10.93;6.80;;;15.00;99.90;;;;;;5024943;27;20520;-73
2021/10/11 12:01:19;;;;;;;7.60;6.80;;;15.10;99.90;;;;;;5024514;28;20552;-72
2021/10/11 12:03:53;;;;;;;8.80;6.87;;;15.00;99.90;;;;;;5022397;27;20467;-73
2021/10/11 12:06:25;;;;;;;7.50;6.60;;;14.80;99.90;;;;;;5020254;28;20444;-73
2021/10/11 12:08:50;;;;;;;7.53;6.73;;;14.70;99.90;;;;;;5024332;27;20457;-75
2021/10/11 12:11:21;;;;;;;8.40;6.83;;;14.70;99.90;;;;;;5025226;28;20444;-73
2021/10/11 12:13:48;;;;;;;8.73;7.93;;;14.70;99.90;;;;;;5023715;27;20844;-72
2021/10/11 12:16:24;;;;;;;12.00;9.10;;;14.60;99.90;;;;;;5024673;28;20479;-73
2021/10/11 12:18:52;;;;;;;11.80;8.10;;;14.50;99.90;;;;;;5024005;27;20472;-73
2021/10/11 12:21:28;;;;;;;10.30;8.37;;;14.60;99.90;;;;;;5011134;28;21094;-73
2021/10/11 12:23:55;;;;;;;9.77;8.73;;;14.80;99.90;;;;;;5008200;27;20512;-73
2021/10/11 12:26:22;;;;;;;10.80;9.13;;;14.90;99.90;;;;;;5028347;28;20842;-73
2021/10/11 12:28:55;;;;;;;7.87;7.03;;;15.00;99.90;;;;;;5043324;27;20504;-73
2021/10/11 12:31:26;;;;;;;10.30;7.00;;;15.10;99.90;;;;;;5044624;27;20449;-73